createdAt,value
2016-10-21T00:00:48.409Z,67.22
2016-10-21T00:01:58.702Z,67.19
2016-10-21T00:03:08.983Z,67.03
2016-10-21T00:04:19.263Z,67.41
2016-10-21T00:05:29.547Z,67.41
2016-10-21T00:06:39.512Z,67.47
2016-10-21T00:07:49.816Z,67.76
2016-10-21T00:08:59.467Z,67.57
2016-10-21T00:10:09.753Z,67.29
2016-10-21T00:11:20.066Z,66.85
2016-10-21T00:12:30.037Z,67.32
2016-10-21T00:13:40.332Z,66.56
2016-10-21T00:14:50.003Z,67.51
2016-10-21T00:15:59.667Z,67.51
2016-10-21T00:17:09.347Z,67.38
2016-10-21T00:18:19.644Z,67.41
2016-10-21T00:19:29.613Z,67.32
2016-10-21T00:20:39.952Z,67.41
2016-10-21T00:21:50.476Z,67.29
2016-10-21T00:23:00.450Z,67.32
2016-10-21T00:24:10.748Z,67.22
2016-10-21T00:25:20.715Z,67.32
2016-10-21T00:26:30.698Z,67.51
2016-10-21T00:27:40.983Z,67.41
2016-10-21T00:28:50.646Z,67.41
2016-10-21T00:30:00.617Z,67.32
2016-10-21T00:31:10.905Z,67.41
2016-10-21T00:32:21.190Z,67.61
2016-10-21T00:33:31.472Z,67.32
2016-10-21T00:34:41.484Z,67.03
2016-10-21T00:35:51.150Z,66.66
2016-10-21T00:37:01.431Z,66.75
2016-10-21T00:38:11.703Z,67.61
2016-10-21T00:39:21.988Z,66.85
2016-10-21T00:40:32.266Z,67.32
2016-10-21T00:41:42.230Z,67.03
2016-10-21T00:42:52.542Z,67.32
2016-10-21T00:44:02.827Z,67.03
2016-10-21T00:45:13.111Z,67.61
2016-10-21T00:46:23.085Z,66.66
2016-10-21T00:47:32.747Z,67.41
2016-10-21T00:48:42.730Z,67.32
2016-10-21T00:49:53.021Z,67.41
2016-10-21T00:51:02.373Z,67.03
2016-10-21T00:52:12.675Z,67.32
2016-10-21T00:53:22.631Z,67.32
2016-10-21T00:54:32.302Z,67.41
2016-10-21T00:55:42.284Z,66.46
2016-10-21T00:56:52.563Z,67.51
2016-10-21T00:58:02.848Z,67.51
2016-10-21T00:59:12.518Z,67.13
2016-10-21T01:00:22.805Z,67.51
2016-10-21T01:01:32.769Z,66.85
2016-10-21T01:02:42.769Z,66.85
2016-10-21T01:03:52.740Z,67.41
2016-10-21T01:05:03.018Z,67.32
2016-10-21T01:06:12.993Z,67.61
2016-10-21T01:07:22.966Z,67.32
2016-10-21T01:08:32.654Z,67.61
2016-10-21T01:09:42.945Z,67.32
2016-10-21T01:10:52.931Z,67.41
2016-10-21T01:12:02.900Z,67.41
2016-10-21T01:13:12.895Z,67.22
2016-10-21T01:14:22.850Z,67.51
2016-10-21T01:15:32.840Z,67.22
2016-10-21T01:16:43.119Z,67.32
2016-10-21T01:17:53.401Z,67.41
2016-10-21T01:19:03.377Z,67.51
2016-10-21T01:20:13.667Z,67.32
2016-10-21T01:21:23.647Z,67.32
2016-10-21T01:22:33.935Z,67.03
2016-10-21T01:23:44.207Z,67.41
2016-10-21T01:24:53.917Z,66.94
2016-10-21T01:26:03.888Z,67.03
2016-10-21T01:27:13.867Z,67.03
2016-10-21T01:28:23.878Z,66.75
2016-10-21T01:29:33.875Z,67.32
2016-10-21T01:30:43.550Z,67.32
2016-10-21T01:31:53.212Z,67.32
2016-10-21T01:33:03.193Z,67.32
2016-10-21T01:34:13.469Z,67.22
2016-10-21T01:35:23.443Z,67.03
2016-10-21T01:36:33.743Z,67.03
2016-10-21T01:37:43.451Z,67.03
2016-10-21T01:38:53.431Z,66.69
2016-10-21T01:40:03.412Z,66.66
2016-10-21T01:41:13.680Z,66.66
2016-10-21T01:42:23.657Z,67.22
2016-10-21T01:43:33.632Z,67.26
2016-10-21T01:44:43.606Z,67.41
2016-10-21T01:45:53.267Z,66.46
2016-10-21T01:47:03.260Z,67.41
2016-10-21T01:48:13.251Z,66.85
2016-10-21T01:49:23.217Z,66.94
2016-10-21T01:50:33.499Z,67.61
2016-10-21T01:51:43.794Z,67.61
2016-10-21T01:52:54.072Z,67.61
2016-10-21T01:54:04.068Z,67.41
2016-10-21T01:55:13.775Z,67.41
2016-10-21T01:56:23.132Z,66.94
2016-10-21T01:57:33.413Z,67.13
2016-10-21T01:58:43.710Z,67.61
2016-10-21T01:59:53.692Z,67.51
2016-10-21T02:01:03.671Z,67.51
2016-10-21T02:02:13.636Z,67.03
2016-10-21T02:03:23.942Z,67.41
2016-10-21T02:04:33.620Z,67.41
2016-10-21T02:05:43.286Z,67.22
2016-10-21T02:06:53.266Z,66.94
2016-10-21T02:08:03.239Z,67.8
2016-10-21T02:09:13.216Z,67.13
2016-10-21T02:10:23.203Z,67.03
2016-10-21T02:11:33.194Z,67.61
2016-10-21T02:12:43.159Z,67.41
2016-10-21T02:13:53.133Z,67.61
2016-10-21T02:15:03.435Z,67.41
2016-10-21T02:16:13.425Z,67.41
2016-10-21T02:17:23.718Z,67.41
2016-10-21T02:18:34.004Z,67.13
2016-10-21T02:19:44.323Z,67.51
2016-10-21T02:20:54.004Z,67.61
2016-10-21T02:22:04.010Z,67.41
2016-10-21T02:23:13.987Z,67.51
2016-10-21T02:24:23.978Z,67.51
2016-10-21T02:25:34.299Z,67.61
2016-10-21T02:26:44.614Z,67.41
2016-10-21T02:27:54.597Z,67.41
2016-10-21T02:29:04.885Z,67.41
2016-10-21T02:30:14.906Z,67.41
2016-10-21T02:31:24.872Z,67.61
2016-10-21T02:32:34.844Z,67.41
2016-10-21T02:33:44.817Z,67.41
2016-10-21T02:34:55.098Z,66.94
2016-10-21T02:36:04.776Z,67.13
2016-10-21T02:37:15.101Z,67.22
2016-10-21T02:38:25.069Z,66.85
2016-10-21T02:39:35.039Z,67.03
2016-10-21T02:40:45.003Z,67.22
2016-10-21T02:41:55.297Z,67.13
2016-10-21T02:43:05.275Z,67.41
2016-10-21T02:44:14.948Z,67.41
2016-10-21T02:45:25.235Z,67.51
2016-10-21T02:46:34.901Z,67.03
2016-10-21T02:47:44.566Z,67.61
2016-10-21T02:48:54.233Z,67.7
2016-10-21T02:50:04.512Z,67.7
2016-10-21T02:51:14.808Z,67.8
2016-10-21T02:52:25.079Z,67.32
2016-10-21T02:53:35.062Z,67.61
2016-10-21T02:54:44.751Z,67.7
2016-10-21T02:55:54.763Z,67.7
2016-10-21T02:57:05.063Z,67.51
2016-10-21T02:58:15.351Z,67.41
2016-10-21T02:59:25.363Z,67.38
2016-10-21T03:00:35.641Z,67.61
2016-10-21T03:32:57.497Z,64.59
2016-10-21T03:34:07.760Z,65.79
2016-10-21T03:35:18.066Z,66.74
2016-10-21T03:36:28.031Z,67.4
2016-10-21T03:37:38.295Z,67.79
2016-10-21T03:38:48.575Z,68.96
2016-10-21T03:39:58.594Z,68.29
2016-10-21T03:41:08.893Z,69.43
2016-10-21T03:42:19.161Z,69.15
2016-10-21T03:43:29.446Z,69.15
2016-10-21T03:44:39.419Z,69.37
2016-10-21T03:45:49.736Z,68.99
2016-10-21T03:47:00.024Z,69.18
2016-10-21T03:48:10.300Z,69.09
2016-10-21T03:49:19.958Z,68.36
2016-10-21T03:50:30.232Z,68.36
2016-10-21T03:51:40.211Z,68.74
2016-10-21T03:52:50.497Z,68.84
2016-10-21T03:54:00.463Z,68.77
2016-10-21T03:55:10.751Z,67.82
2016-10-21T03:56:20.444Z,68.11
2016-10-21T03:57:30.412Z,67.92
2016-10-21T03:58:40.693Z,68.21
2016-10-21T03:59:50.965Z,67.82
2016-10-21T04:01:01.258Z,67.92
2016-10-21T04:02:11.535Z,67.73
2016-10-21T04:03:21.818Z,67.86
2016-10-21T04:04:31.779Z,67.86
2016-10-21T04:05:41.761Z,67.86
2016-10-21T04:06:52.077Z,68.05
2016-10-21T04:08:02.367Z,68.15
2016-10-21T04:09:12.078Z,67.95
2016-10-21T04:10:21.971Z,67.95
2016-10-21T04:11:31.947Z,67.19
2016-10-21T04:12:42.224Z,67.86
2016-10-21T04:13:52.501Z,67.57
2016-10-21T04:15:02.804Z,67.57
2016-10-21T04:16:12.794Z,67.67
2016-10-21T04:17:22.777Z,67
2016-10-21T04:18:32.747Z,67.57
2016-10-21T04:19:42.724Z,67.47
2016-10-21T04:20:52.996Z,67.29
2016-10-21T04:22:02.662Z,67.19
2016-10-21T04:23:12.940Z,67.38
2016-10-21T04:24:23.221Z,67.38
2016-10-21T04:25:33.197Z,67.38
2016-10-21T04:26:43.195Z,67.29
2016-10-21T04:27:53.176Z,67.38
2016-10-21T04:29:03.454Z,67.67
2016-10-21T04:30:13.125Z,67.19
2016-10-21T04:31:22.785Z,67.19
2016-10-21T04:32:33.067Z,67.47
2016-10-21T04:33:42.738Z,67.38
2016-10-21T04:34:53.005Z,67.19
2016-10-21T04:36:02.974Z,67.19
2016-10-21T04:37:13.263Z,67.19
2016-10-21T04:38:23.545Z,67.1
2016-10-21T04:39:32.903Z,67.22
2016-10-21T04:40:42.878Z,67.61
2016-10-21T04:41:52.857Z,67.19
2016-10-21T04:43:03.137Z,67.03
2016-10-21T04:44:13.415Z,67.47
2016-10-21T04:45:23.436Z,67.61
2016-10-21T04:46:33.699Z,67.61
2016-10-21T04:47:43.976Z,67.38
2016-10-21T04:48:53.942Z,67.41
2016-10-21T04:50:03.914Z,67.51
2016-10-21T04:51:13.886Z,67.29
2016-10-21T04:52:24.172Z,67.41
2016-10-21T04:53:34.460Z,67.47
2016-10-21T04:54:44.430Z,67.19
2016-10-21T04:55:54.396Z,67.57
2016-10-21T04:57:04.368Z,67.57
2016-10-21T04:58:14.345Z,67.13
2016-10-21T04:59:24.618Z,67.51
2016-10-21T05:00:34.278Z,67.41
2016-10-21T05:01:44.241Z,67.41
2016-10-21T05:02:54.528Z,67.13
2016-10-21T05:04:04.502Z,67.61
2016-10-21T05:05:13.846Z,67.61
2016-10-21T05:06:24.122Z,67.41
2016-10-21T05:07:34.404Z,67.61
2016-10-21T05:08:44.059Z,67.41
2016-10-21T05:09:54.327Z,67.03
2016-10-21T05:11:04.309Z,67.13
2016-10-21T05:12:14.581Z,67.41
2016-10-21T05:13:24.245Z,67.41
2016-10-21T05:14:34.524Z,67.41
2016-10-21T05:15:44.186Z,67.51
2016-10-21T05:16:53.858Z,67.41
2016-10-21T05:18:04.125Z,67.41
2016-10-21T05:19:14.090Z,67.41
2016-10-21T05:20:24.067Z,67.61
2016-10-21T05:21:34.034Z,67.61
2016-10-21T05:22:44.308Z,67.22
2016-10-21T05:23:54.599Z,67.41
2016-10-21T05:25:04.570Z,67.41
2016-10-21T05:26:14.537Z,67.22
2016-10-21T05:27:24.812Z,67.38
2016-10-21T05:28:35.098Z,67.41
2016-10-21T05:29:45.381Z,67.57
2016-10-21T05:30:55.354Z,67.1
2016-10-21T05:32:05.652Z,67.47
2016-10-21T05:33:15.646Z,67
2016-10-21T05:34:25.923Z,67.41
2016-10-21T05:35:35.269Z,67.51
2016-10-21T05:36:45.242Z,67.32
2016-10-21T05:37:55.538Z,67.32
2016-10-21T05:39:05.809Z,67.41
2016-10-21T05:40:15.493Z,67.41
2016-10-21T05:41:25.773Z,67.7
2016-10-21T05:42:36.049Z,67.61
2016-10-21T05:43:46.324Z,67.51
2016-10-21T05:44:56.610Z,67.22
2016-10-21T05:46:06.264Z,67.7
2016-10-21T05:47:16.241Z,67.61
2016-10-21T05:48:26.514Z,67.32
2016-10-21T05:49:36.795Z,67.7
2016-10-21T05:50:46.467Z,67.7
2016-10-21T05:51:56.430Z,67.32
2016-10-21T05:53:06.745Z,67.41
2016-10-21T05:54:16.706Z,67.32
2016-10-21T05:55:26.978Z,67.22
2016-10-21T05:56:36.960Z,67.61
2016-10-21T05:57:46.943Z,67.32
2016-10-21T05:58:57.226Z,67.32
2016-10-21T06:00:07.511Z,67.32
2016-10-21T06:01:17.802Z,67.41
2016-10-21T06:02:28.087Z,67.41
2016-10-21T06:03:38.359Z,67.41
2016-10-21T06:04:48.648Z,67.61
2016-10-21T06:05:58.624Z,67.13
2016-10-21T06:07:08.926Z,67.03
2016-10-21T06:08:18.903Z,67.61
2016-10-21T06:09:29.185Z,67.51
2016-10-21T06:10:39.161Z,67.51
2016-10-21T06:11:49.124Z,67.51
2016-10-21T06:12:59.089Z,67.61
2016-10-21T06:14:09.071Z,67.61
2016-10-21T06:15:18.754Z,67.16
2016-10-21T06:16:28.424Z,67.51
2016-10-21T06:17:38.700Z,67.61
2016-10-21T06:18:48.982Z,67.51
2016-10-21T06:19:59.274Z,67.61
2016-10-21T06:21:09.561Z,67.83
2016-10-21T06:22:19.848Z,67.51
2016-10-21T06:23:29.819Z,67.64
2016-10-21T06:24:40.095Z,67.22
2016-10-21T06:25:50.109Z,67.13
2016-10-21T06:27:00.390Z,67.64
2016-10-21T06:28:10.057Z,67.35
2016-10-21T06:29:20.343Z,67.35
2016-10-21T06:30:30.621Z,67.45
2016-10-21T06:31:40.617Z,66.59
2016-10-21T06:32:50.292Z,67.55
2016-10-21T06:34:00.570Z,67.55
2016-10-21T06:35:10.854Z,67.45
2016-10-21T06:36:21.133Z,67.35
2016-10-21T06:37:31.402Z,67.07
2016-10-21T06:38:41.675Z,67.35
2016-10-21T06:39:51.952Z,67.26
2016-10-21T06:41:02.269Z,67.45
2016-10-21T06:42:11.938Z,67.45
2016-10-21T06:43:21.997Z,67.35
2016-10-21T06:44:32.285Z,66.88
2016-10-21T06:45:42.558Z,66.78
2016-10-21T06:46:52.878Z,67.07
2016-10-21T06:48:03.159Z,66.88
2016-10-21T06:49:12.821Z,66.97
2016-10-21T06:50:23.344Z,67.16
2016-10-21T06:51:33.636Z,66.78
2016-10-21T06:52:43.933Z,67.1
2016-10-21T06:53:54.256Z,67.07
2016-10-21T06:55:04.542Z,67.35
2016-10-21T06:56:14.857Z,67.64
2016-10-21T06:57:24.851Z,67.26
2016-10-21T06:58:34.823Z,67.07
2016-10-21T06:59:45.102Z,67.64
2016-10-21T07:00:54.763Z,67.35
2016-10-21T07:02:05.060Z,66.97
2016-10-21T07:03:15.034Z,67.55
2016-10-21T07:04:24.995Z,67.07
2016-10-21T07:05:34.986Z,67.45
2016-10-21T07:06:45.294Z,66.97
2016-10-21T07:07:55.580Z,67.45
2016-10-21T07:09:05.891Z,67.55
2016-10-21T07:10:15.897Z,67.26
2016-10-21T07:11:26.199Z,67.07
2016-10-21T07:12:36.476Z,67.26
2016-10-21T07:13:46.761Z,67.35
2016-10-21T07:14:57.050Z,67.55
2016-10-21T07:16:07.343Z,66.88
2016-10-21T07:17:17.619Z,66.72
2016-10-21T07:18:27.904Z,67
2016-10-21T07:19:38.186Z,66.91
2016-10-21T07:20:48.473Z,67.2
2016-10-21T07:21:58.468Z,66.91
2016-10-21T07:23:08.447Z,66.91
2016-10-21T07:24:18.433Z,66.82
2016-10-21T07:25:28.099Z,66.82
2016-10-21T07:26:38.090Z,66.38
2016-10-21T07:27:48.073Z,66.28
2016-10-21T07:28:58.040Z,66.47
2016-10-21T07:30:08.038Z,66.09
2016-10-21T07:31:18.324Z,66.66
2016-10-21T07:32:28.305Z,66.66
2016-10-21T07:33:38.292Z,67.04
2016-10-21T07:34:48.573Z,66.56
2016-10-21T07:35:58.565Z,66.28
2016-10-21T07:37:08.887Z,66.38
2016-10-21T07:38:18.873Z,66.09
2016-10-21T07:39:28.884Z,66.28
2016-10-21T07:40:39.160Z,66.09
2016-10-21T07:41:49.432Z,66.38
2016-10-21T07:42:59.112Z,66.75
2016-10-21T07:44:09.428Z,66.75
2016-10-21T07:45:19.722Z,66.38
2016-10-21T07:46:29.701Z,67.04
2016-10-21T07:47:39.990Z,66.94
2016-10-21T07:48:50.304Z,67.04
2016-10-21T07:50:00.595Z,66.94
2016-10-21T07:51:10.876Z,67.23
2016-10-21T07:52:20.852Z,67.04
2016-10-21T07:53:30.524Z,67.42
2016-10-21T07:54:40.509Z,66.94
2016-10-21T07:55:50.785Z,67.04
2016-10-21T07:57:01.066Z,66.94
2016-10-21T07:58:10.451Z,67.04
2016-10-21T07:59:20.727Z,66.66
2016-10-21T08:00:31.023Z,66.18
2016-10-21T08:01:41.312Z,66.47
2016-10-21T08:02:51.322Z,66.18
2016-10-21T08:04:01.609Z,66.98
2016-10-21T08:05:11.626Z,66.5
2016-10-21T08:06:21.904Z,66.22
2016-10-21T08:07:31.884Z,66.22
2016-10-21T08:08:42.177Z,66.02
2016-10-21T08:09:52.451Z,66.31
2016-10-21T08:11:02.446Z,66.22
2016-10-21T08:12:12.118Z,66.35
2016-10-21T08:13:22.103Z,65.77
2016-10-21T08:14:32.308Z,65.67
2016-10-21T08:15:42.297Z,65.48
2016-10-21T08:16:52.586Z,65.39
2016-10-21T08:18:02.254Z,65.33
2016-10-21T08:19:11.921Z,65.9
2016-10-21T08:20:22.204Z,65.71
2016-10-21T08:21:32.503Z,65.9
2016-10-21T08:22:42.793Z,66.19
2016-10-21T08:23:52.469Z,66.28
2016-10-21T08:25:02.151Z,66.38
2016-10-21T08:26:12.157Z,66.35
2016-10-21T08:27:22.467Z,66.72
2016-10-21T08:28:32.767Z,66.63
2016-10-21T08:29:42.756Z,66.53
2016-10-21T08:30:52.738Z,67.11
2016-10-21T08:32:03.018Z,66.82
2016-10-21T08:33:13.042Z,67.17
2016-10-21T08:34:23.343Z,67.07
2016-10-21T08:35:33.634Z,66.88
2016-10-21T08:36:43.946Z,66.78
2016-10-21T08:37:53.928Z,67.27
2016-10-21T08:39:04.219Z,66.5
2016-10-21T08:40:14.110Z,66.98
2016-10-21T08:41:26.178Z,66.25
2016-10-21T08:42:43.392Z,66.92
2016-10-21T08:44:00.180Z,66.15
2016-10-21T08:45:12.864Z,66.35
2016-10-21T08:46:26.094Z,66.63
2016-10-21T08:47:37.979Z,66.53
2016-10-21T08:48:49.983Z,66.44
2016-10-21T08:50:04.742Z,66.47
2016-10-21T08:51:15.061Z,66.76
2016-10-21T08:52:25.048Z,66.56
2016-10-21T08:53:34.722Z,66.44
2016-10-21T08:54:45.052Z,66.38
2016-10-21T08:55:55.085Z,66.19
2016-10-21T08:57:05.096Z,66.19
2016-10-21T08:58:14.829Z,66.09
2016-10-21T08:59:25.096Z,66.47
2016-10-21T09:00:35.450Z,66.56
2016-10-21T09:01:45.502Z,66.38
2016-10-21T09:02:55.785Z,66.56
2016-10-21T09:04:06.169Z,65.8
2016-10-21T09:05:16.745Z,65.61
2016-10-21T09:06:26.779Z,65.64
2016-10-21T09:07:37.111Z,65.45
2016-10-21T09:08:47.183Z,65.45
2016-10-21T09:09:57.216Z,65.17
2016-10-21T09:11:07.232Z,65.3
2016-10-21T09:12:17.245Z,65.11
2016-10-21T09:13:27.238Z,64.15
2016-10-21T09:14:37.221Z,64.37
2016-10-21T09:15:47.210Z,64.12
2016-10-21T09:16:57.186Z,64.02
2016-10-21T09:18:07.499Z,64.02
2016-10-21T09:19:17.479Z,63.67
2016-10-21T09:20:27.473Z,64.15
2016-10-21T09:21:37.766Z,64.15
2016-10-21T09:22:47.733Z,64.53
2016-10-21T09:23:57.705Z,64.05
2016-10-21T09:25:08.009Z,64.72
2016-10-21T09:26:18.302Z,65.3
2016-10-21T09:27:28.592Z,64.98
2016-10-21T09:28:38.930Z,65.36
2016-10-21T09:29:49.218Z,65.55
2016-10-21T09:30:59.518Z,65.45
2016-10-21T09:32:08.900Z,65.36
2016-10-21T09:33:19.225Z,65.26
2016-10-21T09:34:28.909Z,65.55
2016-10-21T09:35:38.611Z,65.84
2016-10-21T09:36:48.914Z,66.38
2016-10-21T09:37:59.229Z,65.65
2016-10-21T09:39:09.532Z,66
2016-10-21T09:40:19.576Z,66
2016-10-21T09:41:29.572Z,65.81
2016-10-21T09:42:39.885Z,66.09
2016-10-21T09:43:50.184Z,66.09
2016-10-21T09:45:00.169Z,66.09
2016-10-21T09:46:10.457Z,65.81
2016-10-21T09:47:20.762Z,65.71
2016-10-21T09:48:30.740Z,65.52
2016-10-21T09:49:40.434Z,65.52
2016-10-21T09:50:50.786Z,65.55
2016-10-21T09:52:01.092Z,65.17
2016-10-21T09:53:11.386Z,65.65
2016-10-21T09:54:21.064Z,65.45
2016-10-21T09:55:31.347Z,64.98
2016-10-21T09:56:41.345Z,65.08
2016-10-21T09:57:51.644Z,65.3
2016-10-21T09:59:01.970Z,64.63
2016-10-21T10:00:11.976Z,64.43
2016-10-21T10:01:22.300Z,64.05
2016-10-21T10:02:32.637Z,64.47
2016-10-21T10:03:42.632Z,64.43
2016-10-21T10:04:52.314Z,64.72
2016-10-21T10:06:02.614Z,65.11
2016-10-21T10:07:12.607Z,64.95
2016-10-21T10:08:22.290Z,64.92
2016-10-21T10:09:32.595Z,65.2
2016-10-21T10:10:42.597Z,65.3
2016-10-21T10:11:52.886Z,65.11
2016-10-21T10:13:03.193Z,65.05
2016-10-21T10:14:13.497Z,64.82
2016-10-21T10:15:23.770Z,64.95
2016-10-21T10:16:33.761Z,65.14
2016-10-21T10:17:44.052Z,65.23
2016-10-21T10:18:54.039Z,64.76
2016-10-21T10:20:04.343Z,64.37
2016-10-21T10:21:14.661Z,64.12
2016-10-21T10:22:24.977Z,64.12
2016-10-21T10:23:35.276Z,64.37
2016-10-21T10:24:44.979Z,64.4
2016-10-21T10:25:55.294Z,64.12
2016-10-21T10:27:05.302Z,64.12
2016-10-21T10:28:15.597Z,64.31
2016-10-21T10:29:25.595Z,64.5
2016-10-21T10:30:35.918Z,64.79
2016-10-21T10:31:46.227Z,65.26
2016-10-21T10:32:56.535Z,65.26
2016-10-21T10:34:06.245Z,65.46
2016-10-21T10:35:16.544Z,65.17
2016-10-21T10:36:26.856Z,65.17
2016-10-21T10:37:36.832Z,65.17
2016-10-21T10:38:46.236Z,64.98
2016-10-21T10:39:56.598Z,64.89
2016-10-21T10:41:06.588Z,65.08
2016-10-21T10:42:16.604Z,64.89
2016-10-21T10:43:26.629Z,65.26
2016-10-21T10:44:36.986Z,64.89
2016-10-21T10:45:47.291Z,64.69
2016-10-21T10:46:57.280Z,64.59
2016-10-21T10:48:07.584Z,64.59
2016-10-21T10:49:17.888Z,64.34
2016-10-21T10:50:28.264Z,64.25
2016-10-21T10:51:38.289Z,64.63
2016-10-21T10:52:48.374Z,64.34
2016-10-21T10:53:58.703Z,64.15
2016-10-21T10:55:09.051Z,64.05
2016-10-21T10:56:19.385Z,64.28
2016-10-21T10:57:29.718Z,64.18
2016-10-21T10:58:40.046Z,64.28
2016-10-21T10:59:50.360Z,63.7
2016-10-21T11:01:00.664Z,64.28
2016-10-21T11:02:10.678Z,64.31
2016-10-21T11:03:20.677Z,64.37
2016-10-21T11:04:30.373Z,64.66
2016-10-21T11:05:40.706Z,64.76
2016-10-21T11:06:50.109Z,64.47
2016-10-21T11:08:00.419Z,64.66
2016-10-21T11:09:10.410Z,64.76
2016-10-21T11:10:20.449Z,64.09
2016-10-21T11:11:30.418Z,64.79
2016-10-21T11:12:40.740Z,64.56
2016-10-21T11:13:50.743Z,64.18
2016-10-21T11:15:00.747Z,64.47
2016-10-21T11:16:10.796Z,65.33
2016-10-21T11:17:20.817Z,65.52
2016-10-21T11:18:31.113Z,65.49
2016-10-21T11:19:41.411Z,65.49
2016-10-21T11:20:51.108Z,65.88
2016-10-21T11:22:01.134Z,65.59
2016-10-21T11:23:11.479Z,65.75
2016-10-21T11:24:21.186Z,65.65
2016-10-21T11:25:31.180Z,65.55
2016-10-21T11:26:41.492Z,65.65
2016-10-21T11:27:51.814Z,65.55
2016-10-21T11:29:01.802Z,65.75
2016-10-21T11:30:12.118Z,65.46
2016-10-21T11:31:22.144Z,65.08
2016-10-21T11:32:32.197Z,65.01
2016-10-21T11:33:42.508Z,65.01
2016-10-21T11:34:52.513Z,65.2
2016-10-21T11:36:02.835Z,65.2
2016-10-21T11:37:13.144Z,65.01
2016-10-21T11:38:23.160Z,65.11
2016-10-21T11:39:33.496Z,65.2
2016-10-21T11:40:43.810Z,65.2
2016-10-21T11:41:53.799Z,65.3
2016-10-21T11:43:04.126Z,64.72
2016-10-21T11:44:14.131Z,64.63
2016-10-21T11:45:24.449Z,64.72
2016-10-21T11:46:34.435Z,63.99
2016-10-21T11:47:44.420Z,63.89
2016-10-21T11:48:54.064Z,63.99
2016-10-21T11:50:04.371Z,63.99
2016-10-21T11:51:14.064Z,64.18
2016-10-21T11:52:24.369Z,64.18
2016-10-21T11:53:34.052Z,64.59
2016-10-21T11:54:44.052Z,64.56
2016-10-21T11:55:54.386Z,64.85
2016-10-21T11:57:04.706Z,65.05
2016-10-21T11:58:14.398Z,65.72
2016-10-21T11:59:24.700Z,65.52
2016-10-21T12:00:34.711Z,65.72
2016-10-21T12:01:45.032Z,65.52
2016-10-21T12:02:55.030Z,65.72
2016-10-21T12:04:05.045Z,65.78
2016-10-21T12:05:15.353Z,65.81
2016-10-21T12:06:25.340Z,65.78
2016-10-21T12:07:35.656Z,65.78
2016-10-21T12:08:45.675Z,65.68
2016-10-21T12:09:55.725Z,65.78
2016-10-21T12:11:05.429Z,65.49
2016-10-21T12:12:15.438Z,65.39
2016-10-21T12:13:25.466Z,64.95
2016-10-21T12:14:35.769Z,65.33
2016-10-21T12:15:46.088Z,65.43
2016-10-21T12:16:56.100Z,64.85
2016-10-21T12:18:05.798Z,65.05
2016-10-21T12:19:16.111Z,65.43
2016-10-21T12:20:26.111Z,65.14
2016-10-21T12:21:36.484Z,64.66
2016-10-21T12:22:46.791Z,64.56
2016-10-21T12:23:57.108Z,64.56
2016-10-21T12:25:07.647Z,64.66
2016-10-21T12:26:17.656Z,64.5
2016-10-21T12:27:27.643Z,64.18
2016-10-21T12:28:37.665Z,64.18
2016-10-21T12:29:47.665Z,64.4
2016-10-21T12:30:57.994Z,64.89
2016-10-21T12:32:08.008Z,64.5
2016-10-21T12:33:17.698Z,64.5
2016-10-21T12:34:27.384Z,64.4
2016-10-21T12:35:37.361Z,64.53
2016-10-21T12:36:47.665Z,64.5
2016-10-21T12:37:57.672Z,64.89
2016-10-21T12:39:07.999Z,64.79
2016-10-21T12:40:18.313Z,65.36
2016-10-21T12:41:28.351Z,65.17
2016-10-21T12:42:38.674Z,65.62
2016-10-21T12:43:48.975Z,65.72
2016-10-21T12:44:59.294Z,65.36
2016-10-21T12:46:09.282Z,64.59
2016-10-21T12:47:19.307Z,64.5
2016-10-21T12:48:29.316Z,64.63
2016-10-21T12:49:39.629Z,64.79
2016-10-21T12:50:49.647Z,64.63
2016-10-21T12:51:59.972Z,64.05
2016-10-21T12:53:09.984Z,64.18
2016-10-21T12:54:19.672Z,63.41
2016-10-21T12:55:29.670Z,63.6
2016-10-21T12:56:39.670Z,63.15
2016-10-21T12:57:49.685Z,63.45
2016-10-21T12:58:59.399Z,63.54
2016-10-21T13:00:09.414Z,64.12
2016-10-21T13:01:19.749Z,64.31
2016-10-21T13:02:30.078Z,64.76
2016-10-21T13:03:40.387Z,65.11
2016-10-21T13:04:50.696Z,65.59
2016-10-21T13:06:00.744Z,65.75
2016-10-21T13:07:10.744Z,66.42
2016-10-21T13:08:20.726Z,66.8
2016-10-21T13:09:30.723Z,66.67
2016-10-21T13:10:41.024Z,66.83
2016-10-21T13:11:51.338Z,67.5
2016-10-21T13:13:01.644Z,67.41
2016-10-21T13:14:11.046Z,67.28
2016-10-21T13:15:21.342Z,67.57
2016-10-21T13:16:31.659Z,67.18
2016-10-21T13:17:41.971Z,67.66
2016-10-21T13:18:51.665Z,67.28
2016-10-21T13:20:01.665Z,67.09
2016-10-21T13:21:12.010Z,66.8
2016-10-21T13:22:22.001Z,67.18
2016-10-21T13:23:32.303Z,66.61
2016-10-21T13:24:42.319Z,66.8
2016-10-21T13:25:52.307Z,66.61
2016-10-21T13:27:02.624Z,66.71
2016-10-21T13:28:12.931Z,66.42
2016-10-21T13:29:23.232Z,66.42
2016-10-21T13:30:33.560Z,66.61
2016-10-21T13:31:43.572Z,66.22
2016-10-21T13:32:53.256Z,65.94
2016-10-21T13:34:03.529Z,65.55
2016-10-21T13:35:13.840Z,65.49
2016-10-21T13:36:24.170Z,65.3
2016-10-21T13:37:34.507Z,65.2
2016-10-21T13:38:44.540Z,65.43
2016-10-21T13:39:54.246Z,65.05
2016-10-21T13:41:04.562Z,65.05
2016-10-21T13:42:14.901Z,65.05
2016-10-21T13:43:24.605Z,65.52
2016-10-21T13:44:34.285Z,65.49
2016-10-21T13:45:44.296Z,65.68
2016-10-21T13:46:54.600Z,66.35
2016-10-21T13:48:04.898Z,66.55
2016-10-21T13:49:15.197Z,66.45
2016-10-21T13:50:25.198Z,67.02
2016-10-21T13:51:35.203Z,66.89
2016-10-21T13:52:45.501Z,66.61
2016-10-21T13:53:55.497Z,66.61
2016-10-21T13:55:05.537Z,66.61
2016-10-21T13:56:15.571Z,66.8
2016-10-21T13:57:25.579Z,66.89
2016-10-21T13:58:35.945Z,66.99
2016-10-21T13:59:46.257Z,66.61
2016-10-21T14:00:56.797Z,67.09
2016-10-21T14:02:06.847Z,67.09
2016-10-21T14:03:17.152Z,66.58
2016-10-21T14:04:27.502Z,66.38
2016-10-21T14:05:37.809Z,66.58
2016-10-21T14:06:47.807Z,66.77
2016-10-21T14:07:57.482Z,67.05
2016-10-21T14:09:07.832Z,66.77
2016-10-21T14:10:17.523Z,67.34
2016-10-21T14:11:27.515Z,67.44
2016-10-21T14:12:37.509Z,67.02
2016-10-21T14:13:47.839Z,67.5
2016-10-21T14:14:58.180Z,67.31
2016-10-21T14:16:08.186Z,67.21
2016-10-21T14:17:18.487Z,67.41
2016-10-21T14:18:28.492Z,67.02
2016-10-21T14:19:38.815Z,67.11
2016-10-21T14:20:48.511Z,67.37
2016-10-21T14:21:58.827Z,67.18
2016-10-21T14:23:09.159Z,67.37
2016-10-21T14:24:19.157Z,67.37
2016-10-21T14:25:29.472Z,67.47
2016-10-21T14:26:39.796Z,67.72
2016-10-21T14:27:50.128Z,67.91
2016-10-21T14:29:00.129Z,67.24
2016-10-21T14:30:10.119Z,67.05
2016-10-21T14:31:20.120Z,67.24
2016-10-21T14:32:30.181Z,67.72
2016-10-21T14:33:40.209Z,67.14
2016-10-21T14:34:50.520Z,67.82
2016-10-21T14:36:00.512Z,67.43
2016-10-21T14:37:10.518Z,67.78
2016-10-21T14:38:20.521Z,67.78
2016-10-21T14:39:30.532Z,67.49
2016-10-21T14:40:40.856Z,67.59
2016-10-21T14:41:51.172Z,67.78
2016-10-21T14:43:00.564Z,67.3
2016-10-21T14:44:10.618Z,67.63
2016-10-21T14:45:20.924Z,67.49
2016-10-21T14:46:31.431Z,67.69
2016-10-21T14:47:41.432Z,67.49
2016-10-21T14:48:51.428Z,67.69
2016-10-21T14:50:01.436Z,67.78
2016-10-21T14:51:11.428Z,67.88
2016-10-21T14:52:21.745Z,67.69
2016-10-21T14:53:32.058Z,67.46
2016-10-21T14:54:42.054Z,67.65
2016-10-21T14:55:52.067Z,67.46
2016-10-21T14:57:02.371Z,67.55
2016-10-21T14:58:12.682Z,67.55
2016-10-21T14:59:22.731Z,67.46
2016-10-21T15:00:33.039Z,67.46
2016-10-21T15:01:43.026Z,67.55
2016-10-21T15:02:53.022Z,67.55
2016-10-21T15:04:03.332Z,67.55
2016-10-21T15:05:13.638Z,67.55
2016-10-21T15:06:23.936Z,67.52
2016-10-21T15:07:34.261Z,67.52
2016-10-21T15:08:44.574Z,67.43
2016-10-21T15:09:54.895Z,67.62
2016-10-21T15:11:04.877Z,67.62
2016-10-21T15:12:15.189Z,67.62
2016-10-21T15:13:25.493Z,67.71
2016-10-21T15:14:35.794Z,67.62
2016-10-21T15:15:45.785Z,67.62
2016-10-21T15:16:55.786Z,67.91
2016-10-21T15:18:06.075Z,67.81
2016-10-21T15:19:16.064Z,67.62
2016-10-21T15:20:26.373Z,67.33
2016-10-21T15:21:36.056Z,67.33
2016-10-21T15:22:46.357Z,67.05
2016-10-21T15:23:56.365Z,67.05
2016-10-21T15:25:06.057Z,67.43
2016-10-21T15:26:15.775Z,67.24
2016-10-21T15:27:25.782Z,67.24
2016-10-21T15:28:36.098Z,66.76
2016-10-21T15:29:46.404Z,67.62
2016-10-21T15:30:56.453Z,67.62
2016-10-21T15:32:06.444Z,66.56
2016-10-21T15:33:16.148Z,66.76
2016-10-21T15:34:25.852Z,67.05
2016-10-21T15:35:35.873Z,67.14
2016-10-21T15:36:46.204Z,67.62